Joe Foss Field Airport
KFSD : rendu visible

Aérodrome :











RETROUVEZ-NOUS SUR...

 
LOGIN :

S'inscrire | Disclaimer

   EN    FR    IT 

 









Légende :    VFR   VFR Marginal   IFR   IFR Intensif   IFR Très Intensif
Visi : 
Plafond : 
>= 8 km
>= 3000ft
5 à 8 km
1000 à 3000 ft
1500m à 5 km
500 à 1000 ft
800 à 1500m
200 à 500 ft
< 800m
< 200 ft
Symboles :   Orages  Brouillard  Fortes neiges  Fortes précipitations  Vent > 20 kt






- Altitude de l'aérodrome : 1429 ft
- Code IATA : FSD


KFSD - Joe Foss Field

DERNIER METAR :
  • 290856Z AUTO 31018G25KT 10SM CLR 02/M01 A2967 RMK AO2 SLP056 T00221011 51013 $

METARs EXPIRÉS :
  • 290756Z AUTO 31015KT 10SM CLR 03/M01 A2965 RMK AO2 PK WND 33028/0721 SLP050 T00331006 $
  • 290656Z AUTO 32016G26KT 10SM CLR 04/ A2964 RMK AO2 PK WND 32027/0644 SLP047 T0039 $

TAF KFSD
Valide du 29 à 06h jusqu'au 30 à 06h UTC


290522Z 2906/3006 34019G27KT P6SM BKN045
TEMPO 2906/2907 BKN025
FM290900 33017G25KT P6SM SCT100
FM291300 32012G18KT P6SM FEW250
FM300000 33005KT P6SM SKC



MET'MAP, la Météo Aéronautique d'un coup d'oeil ! - Copyright ORBIFLY Décembre 2007 - Disclaimer

ORBIFLY MET'MAP TEAM :

Programmation & Développement : Alexandra Zaïnal
Sur une idée originale de : Baudouin d'Aumeries
Assistance à la programmation : Marc-Olivier Méhu
Soutien technique & logistique : Manuel Goepfert

Contact : metmap@orbifly.com




SOURCES & CREDITS :

   NOAA       Earth
Advisory